createdAt,value
2023-02-04T00:02:09.026Z,1.23
2023-02-04T00:07:11.874Z,1.13
2023-02-04T00:12:16.012Z,0.90
2023-02-04T00:17:18.907Z,0.90
2023-02-04T00:22:21.703Z,0.67
2023-02-04T00:27:25.763Z,1.80
2023-02-04T00:32:28.526Z,0.73
2023-02-04T00:37:31.596Z,0.80
2023-02-04T00:42:35.668Z,0.40
2023-02-04T00:47:38.375Z,1.00
2023-02-04T00:52:41.111Z,1.30
2023-02-04T00:57:47.516Z,1.20
2023-02-04T01:02:50.456Z,0.90
2023-02-04T01:07:53.414Z,0.83
2023-02-04T01:12:57.532Z,0.50
2023-02-04T01:18:00.227Z,0.90
2023-02-04T01:23:02.960Z,2.27
2023-02-04T01:28:07.271Z,0.67
2023-02-04T01:33:10.089Z,1.47
2023-02-04T01:38:12.805Z,0.53
2023-02-04T01:43:17.847Z,1.60
2023-02-04T01:48:22.021Z,2.53
2023-02-04T01:53:26.213Z,0.93
2023-02-04T01:58:31.905Z,0.60
2023-02-04T02:03:34.649Z,2.10
2023-02-04T02:08:37.705Z,0.40
2023-02-04T02:13:42.053Z,0.67
2023-02-04T02:18:45.400Z,1.00
2023-02-04T02:23:51.222Z,1.07
2023-02-04T02:28:54.932Z,0.50
2023-02-04T02:33:57.715Z,0.70
2023-02-04T02:39:02.061Z,0.60
2023-02-04T02:44:05.128Z,1.07
2023-02-04T02:49:08.204Z,0.67
2023-02-04T02:54:21.163Z,0.63
2023-02-04T02:59:26.409Z,1.13
2023-02-04T03:04:31.285Z,0.70
2023-02-04T03:09:35.817Z,2.20
2023-02-04T03:14:39.099Z,0.90
2023-02-04T03:19:42.169Z,0.43
2023-02-04T03:24:46.765Z,0.70
2023-02-04T03:29:50.297Z,0.50
2023-02-04T03:34:53.078Z,1.00
2023-02-04T03:39:57.136Z,0.30
2023-02-04T03:44:59.908Z,1.73
2023-02-04T03:50:02.670Z,0.40
2023-02-04T03:55:07.576Z,0.60
2023-02-04T04:00:11.348Z,0.80
2023-02-04T04:05:16.877Z,1.07
2023-02-04T04:10:21.072Z,1.07
2023-02-04T04:15:23.875Z,1.13
2023-02-04T04:20:28.104Z,1.17
2023-02-04T04:25:32.218Z,1.13
2023-02-04T04:30:35.014Z,1.43
2023-02-04T04:35:37.724Z,0.90
2023-02-04T04:40:41.813Z,1.70
2023-02-04T04:45:44.538Z,0.53
2023-02-04T04:50:47.220Z,1.10
2023-02-04T04:55:51.320Z,0.53
2023-02-04T05:00:54.064Z,1.27
2023-02-04T05:05:56.783Z,0.70
2023-02-04T05:11:00.844Z,1.00
2023-02-04T05:16:03.650Z,1.07
2023-02-04T05:21:06.746Z,1.13
2023-02-04T05:26:13.605Z,1.30
2023-02-04T05:31:18.754Z,0.67
2023-02-04T05:36:21.574Z,1.70
2023-02-04T05:41:25.906Z,0.50
2023-02-04T05:46:28.633Z,0.50
2023-02-04T05:51:31.383Z,1.27
2023-02-04T05:56:35.466Z,1.30
2023-02-04T06:01:38.184Z,1.07
2023-02-04T06:06:40.917Z,1.20
2023-02-04T06:11:45.046Z,1.40
2023-02-04T06:16:48.065Z,1.10
2023-02-04T06:21:50.927Z,2.13
2023-02-04T06:26:55.434Z,0.90
2023-02-04T06:31:58.290Z,1.43
2023-02-04T06:37:01.230Z,1.10
2023-02-04T06:42:05.649Z,3.03
2023-02-04T06:47:08.409Z,1.43
2023-02-04T06:52:11.140Z,1.23
2023-02-04T06:57:15.251Z,1.33
2023-02-04T07:02:18.687Z,2.27
2023-02-04T07:07:21.726Z,2.33
2023-02-04T07:12:26.157Z,1.10
2023-02-04T07:17:28.881Z,1.10
2023-02-04T07:22:31.603Z,1.90
2023-02-04T07:27:35.671Z,0.93
2023-02-04T07:32:38.384Z,0.97
2023-02-04T07:37:41.062Z,2.10
2023-02-04T07:42:45.331Z,0.83
2023-02-04T07:47:52.835Z,1.47
2023-02-04T07:52:55.547Z,0.80
2023-02-04T07:57:59.615Z,1.87
2023-02-04T08:03:02.415Z,3.33
2023-02-04T08:08:05.156Z,2.70
2023-02-04T08:13:09.529Z,0.60
2023-02-04T08:18:12.307Z,2.20
2023-02-04T08:23:15.023Z,3.43
2023-02-04T08:28:19.223Z,1.90
2023-02-04T08:33:22.364Z,1.47
2023-02-04T08:38:25.067Z,1.23
2023-02-04T08:43:29.542Z,1.33
2023-02-04T08:48:32.249Z,1.23
2023-02-04T08:53:34.965Z,2.50
2023-02-04T08:58:39.809Z,1.40
2023-02-04T09:03:42.766Z,2.80
2023-02-04T09:08:45.555Z,1.90
2023-02-04T09:13:50.380Z,1.53
2023-02-04T09:18:53.118Z,1.97
2023-02-04T09:23:56.204Z,1.83
2023-02-04T09:29:00.623Z,1.67
2023-02-04T09:34:03.496Z,1.70
2023-02-04T09:39:06.951Z,1.07
2023-02-04T09:44:13.104Z,1.80
2023-02-04T09:49:16.038Z,1.90
2023-02-04T09:54:21.066Z,2.03
2023-02-04T09:59:28.604Z,1.73
2023-02-04T10:04:31.756Z,2.00
2023-02-04T10:09:34.469Z,2.03
2023-02-04T10:14:38.983Z,2.03
2023-02-04T10:19:41.691Z,1.80
2023-02-04T10:24:44.452Z,2.00
2023-02-04T10:29:57.570Z,0.80
2023-02-04T10:35:01.488Z,1.33
2023-02-04T10:40:04.304Z,3.37
2023-02-04T10:45:24.675Z,1.40
2023-02-04T10:50:29.309Z,2.00
2023-02-04T10:55:32.077Z,2.70
2023-02-04T11:00:36.190Z,2.40
2023-02-04T11:05:39.362Z,0.90
2023-02-04T11:10:42.110Z,1.23
2023-02-04T11:15:50.365Z,3.57
2023-02-04T11:20:55.050Z,1.97
2023-02-04T11:26:04.528Z,3.53
2023-02-04T11:31:25.298Z,1.97
2023-02-04T11:36:28.078Z,3.27
2023-02-04T11:41:31.738Z,2.77
2023-02-04T11:46:35.813Z,2.30
2023-02-04T11:51:38.496Z,1.50
2023-02-04T11:56:41.442Z,1.23
2023-02-04T12:01:45.635Z,4.22
2023-02-04T12:06:58.655Z,2.05
2023-02-04T12:12:03.137Z,1.70
2023-02-04T12:17:18.917Z,2.70
2023-02-04T12:22:21.902Z,1.27
2023-02-04T12:27:24.787Z,1.27
2023-02-04T12:32:28.843Z,1.48
2023-02-04T12:37:31.614Z,1.50
2023-02-04T12:42:34.532Z,1.52
2023-02-04T12:47:38.872Z,1.48
2023-02-04T12:52:41.596Z,2.15
2023-02-04T12:57:44.304Z,1.85
2023-02-04T13:02:48.388Z,3.20
2023-02-04T13:07:51.115Z,1.25
2023-02-04T13:12:53.842Z,2.30
2023-02-04T13:17:58.355Z,1.73
2023-02-04T13:23:01.119Z,1.50
2023-02-04T13:28:04.068Z,1.20
2023-02-04T13:33:08.128Z,2.30
2023-02-04T13:38:10.842Z,1.13
2023-02-04T13:43:13.725Z,0.90
2023-02-04T13:48:18.621Z,1.17
2023-02-04T13:53:21.328Z,0.80
2023-02-04T13:58:24.055Z,2.33
2023-02-04T14:03:28.900Z,1.15
2023-02-04T14:08:31.733Z,1.20
2023-02-04T14:13:34.458Z,2.38
2023-02-04T14:18:38.519Z,1.33
2023-02-04T14:23:41.476Z,2.53
2023-02-04T14:28:44.172Z,1.52
2023-02-04T14:33:50.335Z,1.52
2023-02-04T14:38:53.211Z,7.60
2023-02-04T14:43:56.031Z,4.53
2023-02-04T14:49:00.118Z,3.97
2023-02-04T14:54:03.296Z,2.15
2023-02-04T14:59:06.020Z,1.50
2023-02-04T15:04:12.010Z,2.53
2023-02-04T15:09:15.058Z,2.33
2023-02-04T15:14:17.935Z,1.73
2023-02-04T15:19:23.642Z,1.83
2023-02-04T15:24:27.759Z,4.78
2023-02-04T15:29:30.544Z,1.55
2023-02-04T15:34:35.211Z,1.90
2023-02-04T15:39:37.958Z,3.92
2023-02-04T15:44:40.766Z,1.45
2023-02-04T15:49:44.784Z,1.65
2023-02-04T15:54:47.566Z,1.53
2023-02-04T15:59:50.294Z,1.80
2023-02-04T16:04:54.345Z,2.83
2023-02-04T16:09:57.122Z,3.43
2023-02-04T16:14:59.978Z,0.90
2023-02-04T16:20:04.630Z,1.23
2023-02-04T16:25:08.259Z,1.47
2023-02-04T16:30:12.898Z,1.70
2023-02-04T16:35:17.131Z,1.60
2023-02-04T16:40:20.421Z,1.23
2023-02-04T16:45:24.312Z,2.60
2023-02-04T16:50:28.520Z,2.27
2023-02-04T16:55:31.512Z,2.53
2023-02-04T17:00:34.431Z,2.30
2023-02-04T17:05:38.751Z,3.03
2023-02-04T17:10:59.337Z,3.03
2023-02-04T17:16:02.268Z,2.00
2023-02-04T17:21:06.762Z,4.20
2023-02-04T17:26:09.563Z,7.57
2023-02-04T17:31:12.633Z,7.47
2023-02-04T17:36:17.036Z,7.00
2023-02-04T17:41:19.783Z,6.27
2023-02-04T17:46:22.820Z,4.17
2023-02-04T17:51:27.260Z,4.60
2023-02-04T17:56:31.689Z,6.80
2023-02-04T18:01:34.672Z,6.67
2023-02-04T18:06:39.058Z,3.77
2023-02-04T18:11:41.949Z,4.97
2023-02-04T18:16:45.535Z,4.40
2023-02-04T18:21:51.540Z,6.70
2023-02-04T18:26:56.428Z,4.43
2023-02-04T18:32:01.094Z,4.53
2023-02-04T18:37:24.569Z,4.03
2023-02-04T18:42:28.284Z,3.50
2023-02-04T18:47:33.382Z,6.07
2023-02-04T18:52:38.450Z,13.80
2023-02-04T18:57:41.657Z,11.03
2023-02-04T19:02:49.050Z,14.20
2023-02-04T19:07:55.637Z,14.20
2023-02-04T19:13:14.585Z,8.73
2023-02-04T19:18:23.891Z,4.77
2023-02-04T19:23:28.022Z,7.63
2023-02-04T19:28:36.222Z,7.73
2023-02-04T19:33:42.343Z,6.40
2023-02-04T19:38:52.637Z,5.17
2023-02-04T19:44:34.896Z,5.87
2023-02-04T19:49:38.105Z,8.67
2023-02-04T19:54:43.325Z,7.27
2023-02-04T19:59:46.225Z,6.93
2023-02-04T20:04:51.141Z,8.67
2023-02-04T20:09:58.957Z,9.40
2023-02-04T20:15:03.610Z,6.57
2023-02-04T20:20:29.294Z,4.73
2023-02-04T20:25:43.554Z,5.57
2023-02-04T20:30:46.978Z,7.60
2023-02-04T20:36:31.268Z,5.63
2023-02-04T20:41:38.248Z,10.17
2023-02-04T20:46:41.011Z,6.47
2023-02-04T20:51:43.700Z,7.73
2023-02-04T20:56:47.791Z,8.20
2023-02-04T21:01:51.267Z,6.10
2023-02-04T21:06:55.403Z,8.97
2023-02-04T21:12:00.205Z,5.73
2023-02-04T21:17:03.329Z,6.83
2023-02-04T21:22:06.037Z,6.50
2023-02-04T21:27:10.112Z,6.63
2023-02-04T21:32:12.823Z,6.37
2023-02-04T21:37:15.661Z,6.13
2023-02-04T21:42:19.897Z,5.13
2023-02-04T21:47:22.616Z,7.23
2023-02-04T21:52:25.335Z,5.00
2023-02-04T21:57:29.446Z,4.37
2023-02-04T22:02:32.341Z,4.60
2023-02-04T22:07:35.313Z,5.47
2023-02-04T22:12:39.408Z,4.50
2023-02-04T22:17:42.160Z,3.47
2023-02-04T22:22:45.766Z,2.03
2023-02-04T22:27:50.155Z,1.60
2023-02-04T22:32:52.890Z,2.40
2023-02-04T22:37:55.740Z,2.47
2023-02-04T22:42:59.978Z,3.00
2023-02-04T22:48:02.901Z,2.87
2023-02-04T22:53:05.630Z,2.30
2023-02-04T22:58:09.708Z,3.27
2023-02-04T23:03:12.381Z,2.80
2023-02-04T23:08:15.201Z,3.93
2023-02-04T23:13:19.715Z,3.50
2023-02-04T23:18:22.392Z,10.30
2023-02-04T23:23:26.003Z,4.47
2023-02-04T23:28:30.884Z,4.10
2023-02-04T23:33:33.587Z,4.47
2023-02-04T23:38:36.320Z,3.03
2023-02-04T23:43:40.423Z,4.27
2023-02-04T23:48:43.106Z,2.87
2023-02-04T23:53:45.809Z,4.63
2023-02-04T23:58:50.004Z,3.97
